createdAt,value
2022-09-28T00:01:18.145Z,0.90
2022-09-28T00:03:45.690Z,0.60
2022-09-28T00:06:14.425Z,0.70
2022-09-28T00:08:40.902Z,0.63
2022-09-28T00:11:08.442Z,0.90
2022-09-28T00:13:35.089Z,1.10
2022-09-28T00:16:02.727Z,1.40
2022-09-28T00:18:29.402Z,1.80
2022-09-28T00:21:10.328Z,1.52
2022-09-28T00:23:37.162Z,1.48
2022-09-28T00:26:06.655Z,1.23
2022-09-28T00:28:33.165Z,1.40
2022-09-28T00:31:00.369Z,1.40
2022-09-28T00:33:26.951Z,1.58
2022-09-28T00:35:59.389Z,1.50
2022-09-28T00:38:27.089Z,1.50
2022-09-28T00:40:53.633Z,1.75
2022-09-28T00:43:20.795Z,1.73
2022-09-28T00:45:57.735Z,1.40
2022-09-28T00:48:27.714Z,1.50
2022-09-28T00:50:54.232Z,1.95
2022-09-28T00:53:27.060Z,1.63
2022-09-28T00:56:02.182Z,1.90
2022-09-28T00:58:32.347Z,1.75
2022-09-28T01:03:26.834Z,1.80
2022-09-28T01:05:53.907Z,1.60
2022-09-28T01:08:21.841Z,2.20
2022-09-28T01:10:49.014Z,2.00
2022-09-28T01:13:15.802Z,1.85
2022-09-28T01:16:07.173Z,2.05
2022-09-28T01:19:07.368Z,2.15
2022-09-28T01:21:54.080Z,1.73
2022-09-28T01:24:27.708Z,1.50
2022-09-28T01:26:56.399Z,1.83
2022-09-28T01:29:36.381Z,1.83
2022-09-28T01:32:22.997Z,1.58
2022-09-28T01:35:04.232Z,1.70
2022-09-28T01:37:53.412Z,1.77
2022-09-28T01:40:25.139Z,1.60
2022-09-28T01:42:59.914Z,1.67
2022-09-28T01:45:29.692Z,1.63
2022-09-28T01:48:02.175Z,1.50
2022-09-28T01:50:29.875Z,1.65
2022-09-28T01:53:15.779Z,1.67
2022-09-28T01:55:45.112Z,1.88
2022-09-28T01:58:28.773Z,1.65
2022-09-28T02:01:09.517Z,1.58
2022-09-28T02:03:41.609Z,1.60
2022-09-28T02:06:22.076Z,1.55
2022-09-28T02:09:05.498Z,1.65
2022-09-28T02:11:32.963Z,1.50
2022-09-28T02:14:03.937Z,1.90
2022-09-28T02:16:35.981Z,1.70
2022-09-28T02:19:03.350Z,2.00
2022-09-28T02:21:42.995Z,2.20
2022-09-28T02:24:21.191Z,2.28
2022-09-28T02:26:52.005Z,2.30
2022-09-28T02:29:18.799Z,2.10
2022-09-28T02:31:45.560Z,2.47
2022-09-28T02:34:12.042Z,2.80
2022-09-28T02:36:42.467Z,2.40
2022-09-28T02:39:15.930Z,2.60
2022-09-28T02:41:42.318Z,3.00
2022-09-28T02:44:31.222Z,2.17
2022-09-28T02:47:18.016Z,2.13
2022-09-28T02:49:50.104Z,2.63
2022-09-28T02:52:50.807Z,2.28
2022-09-28T02:55:44.947Z,3.22
2022-09-28T02:58:14.403Z,2.75
2022-09-28T03:00:45.242Z,2.88
2022-09-28T03:03:42.466Z,2.92
2022-09-28T03:06:22.649Z,2.55
2022-09-28T03:09:04.771Z,2.60
2022-09-28T03:11:46.021Z,2.35
2022-09-28T03:14:17.245Z,3.03
2022-09-28T03:16:44.621Z,2.03
2022-09-28T03:19:15.789Z,2.22
2022-09-28T03:21:42.888Z,2.75
2022-09-28T03:24:09.399Z,2.38
2022-09-28T03:26:35.901Z,2.70
2022-09-28T03:29:02.358Z,2.28
2022-09-28T03:31:28.862Z,2.50
2022-09-28T03:33:55.331Z,3.30
2022-09-28T03:36:21.817Z,3.20
2022-09-28T03:38:52.701Z,2.63
2022-09-28T03:41:19.188Z,3.53
2022-09-28T03:43:45.646Z,2.65
2022-09-28T03:46:12.204Z,2.75
2022-09-28T03:48:39.761Z,2.47
2022-09-28T03:51:07.325Z,2.60
2022-09-28T03:53:33.806Z,2.15
2022-09-28T03:56:05.649Z,2.10
2022-09-28T03:58:32.342Z,2.35
2022-09-28T04:01:07.791Z,2.05
2022-09-28T04:03:35.048Z,1.80
2022-09-28T04:06:01.566Z,2.70
2022-09-28T04:08:28.282Z,1.92
2022-09-28T04:10:58.711Z,1.77
2022-09-28T04:13:26.130Z,2.30
2022-09-28T04:15:54.404Z,1.58
2022-09-28T04:18:21.356Z,2.30
2022-09-28T04:20:51.187Z,2.30
2022-09-28T04:23:17.818Z,2.90
2022-09-28T04:25:44.304Z,2.08
2022-09-28T04:28:11.283Z,1.98
2022-09-28T04:30:37.919Z,2.58
2022-09-28T04:33:04.565Z,2.10
2022-09-28T04:35:31.794Z,2.83
2022-09-28T04:37:58.398Z,2.00
2022-09-28T04:40:24.964Z,2.35
2022-09-28T04:42:55.433Z,1.90
2022-09-28T04:45:22.730Z,1.73
2022-09-28T04:47:49.893Z,1.70
2022-09-28T04:50:16.634Z,1.30
2022-09-28T04:52:43.146Z,1.40
2022-09-28T04:55:12.109Z,1.95
2022-09-28T04:57:38.604Z,1.67
2022-09-28T05:00:05.752Z,1.63
2022-09-28T05:02:32.301Z,2.40
2022-09-28T05:04:58.852Z,2.90
2022-09-28T05:07:25.843Z,1.88
2022-09-28T05:09:52.687Z,2.05
2022-09-28T05:12:19.121Z,1.90
2022-09-28T05:14:45.583Z,1.60
2022-09-28T05:17:12.504Z,1.80
2022-09-28T05:19:39.088Z,1.58
2022-09-28T05:22:05.565Z,2.70
2022-09-28T05:24:33.250Z,1.80
2022-09-28T05:26:59.785Z,2.22
2022-09-28T05:29:30.085Z,2.22
2022-09-28T05:31:58.581Z,1.92
2022-09-28T05:34:25.132Z,2.22
2022-09-28T05:36:52.219Z,2.45
2022-09-28T05:39:18.992Z,1.70
2022-09-28T05:41:45.435Z,1.83
2022-09-28T05:44:11.895Z,2.20
2022-09-28T05:46:41.444Z,3.67
2022-09-28T05:49:08.007Z,2.90
2022-09-28T05:51:34.569Z,4.30
2022-09-28T05:54:05.653Z,2.83
2022-09-28T05:56:33.085Z,3.58
2022-09-28T05:58:59.823Z,5.38
2022-09-28T06:01:27.141Z,2.53
2022-09-28T06:03:53.683Z,4.28
2022-09-28T06:06:20.149Z,3.33
2022-09-28T06:08:46.594Z,2.13
2022-09-28T06:11:13.038Z,1.88
2022-09-28T06:13:39.635Z,2.25
2022-09-28T06:16:07.342Z,2.65
2022-09-28T06:18:34.051Z,4.30
2022-09-28T06:21:00.528Z,2.28
2022-09-28T06:23:26.984Z,2.35
2022-09-28T06:25:53.415Z,2.05
2022-09-28T06:28:19.870Z,1.90
2022-09-28T06:30:46.436Z,1.83
2022-09-28T06:33:14.520Z,2.22
2022-09-28T06:35:41.400Z,4.70
2022-09-28T06:38:07.935Z,1.90
2022-09-28T06:40:34.462Z,2.88
2022-09-28T06:43:06.062Z,1.33
2022-09-28T06:45:32.499Z,1.77
2022-09-28T06:48:00.548Z,1.92
2022-09-28T06:50:28.960Z,1.00
2022-09-28T06:52:55.491Z,0.73
2022-09-28T06:55:22.315Z,0.55
2022-09-28T06:57:57.488Z,0.77
2022-09-28T07:00:24.017Z,0.60
2022-09-28T07:02:53.952Z,0.60
2022-09-28T07:05:20.604Z,0.30
2022-09-28T07:07:47.058Z,0.30
2022-09-28T07:10:14.359Z,0.30
2022-09-28T07:12:41.058Z,0.30
2022-09-28T07:15:08.263Z,0.30
2022-09-28T07:17:43.472Z,0.50
2022-09-28T07:20:19.628Z,0.50
2022-09-28T07:22:46.605Z,0.40
2022-09-28T07:25:13.108Z,0.40
2022-09-28T07:27:39.861Z,0.40
2022-09-28T07:30:07.326Z,0.28
2022-09-28T07:32:33.772Z,0.40
2022-09-28T07:35:00.430Z,0.40
2022-09-28T07:37:26.976Z,0.30
2022-09-28T07:39:53.727Z,0.40
2022-09-28T07:42:20.982Z,0.30
2022-09-28T07:44:47.648Z,0.45
2022-09-28T07:47:14.877Z,0.32
2022-09-28T07:49:42.607Z,0.30
2022-09-28T07:52:09.092Z,0.30
2022-09-28T07:54:35.826Z,0.35
2022-09-28T07:57:05.937Z,0.22
2022-09-28T08:01:58.904Z,0.40
2022-09-28T08:04:25.983Z,0.22
2022-09-28T08:06:52.622Z,0.20
2022-09-28T08:09:19.164Z,0.17
2022-09-28T08:11:45.775Z,0.20
2022-09-28T08:14:12.274Z,0.30
2022-09-28T08:19:10.186Z,0.20
2022-09-28T08:21:36.641Z,0.30
2022-09-28T08:24:03.171Z,0.30
2022-09-28T08:26:31.480Z,0.30
2022-09-28T08:28:57.956Z,0.20
2022-09-28T08:31:24.534Z,0.23
2022-09-28T08:33:50.979Z,0.57
2022-09-28T08:36:17.421Z,0.47
2022-09-28T08:38:44.397Z,0.40
2022-09-28T08:41:23.001Z,0.30
2022-09-28T08:44:16.831Z,0.40
2022-09-28T08:46:52.403Z,0.40
2022-09-28T08:49:34.235Z,0.40
2022-09-28T08:52:03.827Z,0.53
2022-09-28T08:54:40.906Z,0.40
2022-09-28T08:57:12.961Z,0.30
2022-09-28T08:59:52.529Z,0.43
2022-09-28T09:02:25.824Z,0.20
2022-09-28T09:04:52.604Z,0.20
2022-09-28T09:07:28.155Z,0.17
2022-09-28T09:10:18.276Z,0.10
2022-09-28T09:15:41.545Z,0.50
2022-09-28T09:18:15.560Z,0.43
2022-09-28T09:20:56.051Z,0.47
2022-09-28T09:23:40.729Z,0.50
2022-09-28T09:26:22.024Z,0.40
2022-09-28T09:29:30.100Z,0.23
2022-09-28T09:32:13.231Z,0.30
2022-09-28T09:35:01.381Z,0.20
2022-09-28T09:37:46.223Z,0.30
2022-09-28T09:40:18.209Z,0.20
2022-09-28T09:42:49.678Z,0.30
2022-09-28T09:45:19.010Z,0.30
2022-09-28T09:47:49.406Z,0.13
2022-09-28T09:50:26.152Z,0.20
2022-09-28T09:53:05.609Z,0.10
2022-09-28T09:55:50.845Z,0.30
2022-09-28T09:58:22.389Z,0.20
2022-09-28T10:00:54.043Z,0.20
2022-09-28T10:03:34.821Z,0.27
2022-09-28T10:06:08.387Z,0.10
2022-09-28T10:08:39.697Z,0.13
2022-09-28T10:11:13.194Z,0.30
2022-09-28T10:13:39.759Z,0.67
2022-09-28T10:16:07.292Z,0.47
2022-09-28T10:18:34.130Z,0.40
2022-09-28T10:21:00.694Z,0.50
2022-09-28T10:23:30.183Z,0.33
2022-09-28T10:26:03.669Z,0.68
2022-09-28T10:28:36.021Z,0.60
2022-09-28T10:31:33.335Z,0.40
2022-09-28T10:33:59.811Z,0.40
2022-09-28T10:36:26.346Z,0.30
2022-09-28T10:38:52.835Z,0.40
2022-09-28T10:41:19.485Z,0.20
2022-09-28T10:43:58.170Z,0.20
2022-09-28T10:46:24.771Z,0.20
2022-09-28T10:48:51.370Z,0.30
2022-09-28T10:51:17.894Z,0.40
2022-09-28T10:54:01.392Z,0.40
2022-09-28T10:56:30.329Z,0.40
2022-09-28T10:58:57.198Z,0.33
2022-09-28T11:01:26.661Z,0.40
2022-09-28T11:04:01.615Z,0.20
2022-09-28T11:06:33.225Z,0.60
2022-09-28T11:09:28.401Z,0.60
2022-09-28T11:12:01.035Z,0.20
2022-09-28T11:14:38.257Z,0.60
2022-09-28T11:17:37.515Z,0.20
2022-09-28T11:20:27.829Z,0.20
2022-09-28T11:23:00.318Z,0.40
2022-09-28T11:25:28.908Z,0.20
2022-09-28T11:28:01.964Z,0.20
2022-09-28T11:30:28.527Z,0.40
2022-09-28T11:33:03.123Z,0.30
2022-09-28T11:35:47.066Z,0.37
2022-09-28T11:38:32.836Z,0.30
2022-09-28T11:41:26.783Z,0.20
2022-09-28T11:44:28.159Z,0.10
2022-09-28T11:47:09.889Z,0.20
2022-09-28T11:49:44.723Z,0.27
2022-09-28T11:52:18.805Z,0.30
2022-09-28T11:54:52.281Z,0.30
2022-09-28T11:57:22.190Z,0.40
2022-09-28T11:59:58.967Z,0.25
2022-09-28T12:02:33.970Z,0.20
2022-09-28T12:05:30.551Z,0.43
2022-09-28T12:08:02.010Z,0.50
2022-09-28T12:10:45.584Z,0.40
2022-09-28T12:13:15.380Z,0.50
2022-09-28T12:16:11.635Z,0.45
2022-09-28T12:18:41.112Z,0.45
2022-09-28T12:21:42.973Z,0.70
2022-09-28T12:24:27.302Z,0.53
2022-09-28T12:26:58.546Z,0.50
2022-09-28T12:29:35.212Z,0.50
2022-09-28T12:32:10.221Z,0.47
2022-09-28T12:34:36.776Z,0.40
2022-09-28T12:37:27.975Z,0.80
2022-09-28T12:40:23.490Z,0.90
2022-09-28T12:43:05.313Z,0.70
2022-09-28T12:46:10.506Z,0.70
2022-09-28T12:49:47.196Z,0.60
2022-09-28T12:51:50.047Z,0.60
2022-09-28T12:54:21.964Z,0.70
2022-09-28T12:57:14.215Z,0.77
2022-09-28T13:00:04.708Z,1.00
2022-09-28T13:02:49.335Z,0.80
2022-09-28T13:05:38.732Z,0.90
2022-09-28T13:08:12.186Z,0.70
2022-09-28T13:10:52.096Z,0.53
2022-09-28T13:13:47.440Z,0.40
2022-09-28T13:16:19.722Z,0.60
2022-09-28T13:18:49.031Z,0.30
2022-09-28T13:21:18.835Z,0.40
2022-09-28T13:23:47.039Z,0.73
2022-09-28T13:26:28.416Z,0.50
2022-09-28T13:29:00.077Z,0.40
2022-09-28T13:31:29.285Z,0.33
2022-09-28T13:34:00.091Z,0.20
2022-09-28T13:36:29.623Z,0.40
2022-09-28T13:38:57.618Z,0.38
2022-09-28T13:41:35.610Z,0.30
2022-09-28T13:44:12.042Z,0.37
2022-09-28T13:46:56.839Z,0.17
2022-09-28T13:49:42.494Z,0.47
2022-09-28T13:52:26.868Z,0.20
2022-09-28T13:55:02.465Z,0.20
2022-09-28T13:57:35.660Z,0.30
2022-09-28T14:00:24.827Z,0.20
2022-09-28T14:03:04.740Z,0.10
2022-09-28T14:05:34.369Z,0.20
2022-09-28T14:08:09.904Z,0.45
2022-09-28T14:10:53.284Z,0.30
2022-09-28T14:13:41.650Z,0.20
2022-09-28T14:16:28.889Z,0.37
2022-09-28T14:19:10.454Z,0.30
2022-09-28T14:22:01.830Z,0.40
2022-09-28T14:24:59.300Z,0.23
2022-09-28T14:27:44.200Z,0.30
2022-09-28T14:30:13.669Z,0.30
2022-09-28T14:32:41.938Z,0.30
2022-09-28T14:35:19.422Z,0.23
2022-09-28T14:37:48.379Z,0.30
2022-09-28T14:40:21.142Z,0.20
2022-09-28T14:43:22.497Z,0.30
2022-09-28T14:45:49.099Z,0.20
2022-09-28T14:48:20.806Z,0.20
2022-09-28T14:50:47.508Z,0.30
2022-09-28T14:53:18.570Z,0.20
2022-09-28T14:55:50.732Z,0.10
2022-09-28T14:58:20.711Z,0.20
2022-09-28T15:00:49.148Z,0.20
2022-09-28T15:03:16.042Z,0.30
2022-09-28T15:05:44.475Z,0.30
2022-09-28T15:08:11.613Z,0.33
2022-09-28T15:10:46.369Z,0.20
2022-09-28T15:13:26.065Z,0.40
2022-09-28T15:16:13.648Z,0.57
2022-09-28T15:18:48.249Z,0.80
2022-09-28T15:21:14.804Z,0.90
2022-09-28T15:23:43.136Z,0.90
2022-09-28T15:26:24.590Z,0.90
2022-09-28T15:28:54.849Z,0.80
2022-09-28T15:31:23.704Z,0.77
2022-09-28T15:33:52.680Z,0.60
2022-09-28T15:36:21.902Z,0.40
2022-09-28T15:38:55.708Z,0.30
2022-09-28T15:41:22.424Z,0.60
2022-09-28T15:44:12.642Z,0.47
2022-09-28T15:49:23.091Z,0.50
2022-09-28T15:51:51.883Z,0.40
2022-09-28T15:54:23.925Z,0.60
2022-09-28T15:56:56.661Z,0.70
2022-09-28T15:59:29.639Z,0.70
2022-09-28T16:02:17.449Z,0.50
2022-09-28T16:04:49.688Z,0.80
2022-09-28T16:07:16.108Z,1.00
2022-09-28T16:10:01.877Z,0.90
2022-09-28T16:12:49.097Z,0.90
2022-09-28T16:15:31.318Z,0.90
2022-09-28T16:18:00.250Z,0.80
2022-09-28T16:20:31.662Z,1.10
2022-09-28T16:23:08.612Z,0.60
2022-09-28T16:25:36.646Z,0.80
2022-09-28T16:28:04.276Z,0.57
2022-09-28T16:30:33.205Z,0.80
2022-09-28T16:33:02.739Z,0.70
2022-09-28T16:35:31.420Z,1.00
2022-09-28T16:38:08.755Z,1.10
2022-09-28T16:40:39.159Z,1.70
2022-09-28T16:43:07.074Z,1.30
2022-09-28T16:45:33.643Z,0.90
2022-09-28T16:48:00.164Z,0.70
2022-09-28T16:50:26.652Z,1.00
2022-09-28T16:53:00.219Z,1.20
2022-09-28T16:55:40.219Z,1.33
2022-09-28T16:58:07.588Z,1.08
2022-09-28T17:00:34.102Z,1.00
2022-09-28T17:03:00.598Z,1.02
2022-09-28T17:05:27.069Z,1.10
2022-09-28T17:08:02.181Z,0.90
2022-09-28T17:11:09.364Z,1.08
2022-09-28T17:13:30.995Z,1.10
2022-09-28T17:15:58.297Z,0.90
2022-09-28T17:18:24.836Z,0.93
2022-09-28T17:20:52.396Z,0.98
2022-09-28T17:25:46.760Z,0.98
2022-09-28T17:28:22.365Z,1.10
2022-09-28T17:30:48.878Z,1.15
2022-09-28T17:33:15.676Z,1.55
2022-09-28T17:35:43.222Z,1.20
2022-09-28T17:38:12.007Z,0.93
2022-09-28T17:40:38.531Z,0.70
2022-09-28T17:43:05.126Z,1.00
2022-09-28T17:45:32.756Z,1.00
2022-09-28T17:47:59.329Z,1.05
2022-09-28T17:50:28.219Z,1.05
2022-09-28T17:52:55.280Z,0.85
2022-09-28T17:55:24.113Z,0.82
2022-09-28T17:57:50.685Z,0.90
2022-09-28T18:00:19.067Z,1.20
2022-09-28T18:02:45.675Z,1.40
2022-09-28T18:05:20.799Z,1.20
2022-09-28T18:07:59.686Z,1.00
2022-09-28T18:10:26.207Z,1.20
2022-09-28T18:12:52.995Z,1.10
2022-09-28T18:15:19.635Z,1.20
2022-09-28T18:17:46.086Z,0.60
2022-09-28T18:20:13.042Z,0.60
2022-09-28T18:22:39.829Z,1.13
2022-09-28T18:25:06.949Z,0.90
2022-09-28T18:27:33.547Z,0.55
2022-09-28T18:30:00.345Z,0.60
2022-09-28T18:32:28.259Z,0.90
2022-09-28T18:34:54.736Z,1.00
2022-09-28T18:37:21.177Z,0.65
2022-09-28T18:39:47.609Z,0.90
2022-09-28T18:42:14.088Z,0.93
2022-09-28T18:44:40.498Z,0.60
2022-09-28T18:47:06.995Z,0.90
2022-09-28T18:49:34.028Z,0.60
2022-09-28T18:52:00.830Z,0.60
2022-09-28T18:54:27.323Z,0.68
2022-09-28T18:56:55.120Z,0.60
2022-09-28T18:59:21.993Z,0.80
2022-09-28T19:01:48.664Z,0.57
2022-09-28T19:04:15.504Z,0.60
2022-09-28T19:06:43.964Z,0.68
2022-09-28T19:09:10.638Z,0.60
2022-09-28T19:11:39.997Z,0.40
2022-09-28T19:14:24.458Z,0.40
2022-09-28T19:16:53.410Z,0.60
2022-09-28T19:19:20.496Z,0.40
2022-09-28T19:21:47.256Z,0.30
2022-09-28T19:24:17.632Z,0.30
2022-09-28T19:26:44.448Z,0.32
2022-09-28T19:29:11.885Z,0.50
2022-09-28T19:31:38.781Z,0.40
2022-09-28T19:34:06.759Z,0.35
2022-09-28T19:36:34.924Z,0.30
2022-09-28T19:39:05.472Z,0.60
2022-09-28T19:41:39.090Z,0.50
2022-09-28T19:44:18.136Z,0.50
2022-09-28T19:46:44.891Z,0.43
2022-09-28T19:49:14.042Z,0.47
2022-09-28T19:51:56.535Z,0.40
2022-09-28T19:54:28.706Z,0.40
2022-09-28T19:56:56.689Z,0.73
2022-09-28T19:59:23.842Z,0.70
2022-09-28T20:01:50.881Z,0.40
2022-09-28T20:04:18.564Z,0.30
2022-09-28T20:06:45.099Z,0.50
2022-09-28T20:09:11.556Z,0.50
2022-09-28T20:11:38.048Z,0.85
2022-09-28T20:14:09.601Z,0.60
2022-09-28T20:16:36.647Z,0.50
2022-09-28T20:19:03.987Z,0.52
2022-09-28T20:21:33.003Z,0.60
2022-09-28T20:23:59.622Z,0.60
2022-09-28T20:26:26.802Z,0.60
2022-09-28T20:28:53.769Z,0.30
2022-09-28T20:31:24.790Z,0.93
2022-09-28T20:33:51.969Z,0.70
2022-09-28T20:36:21.103Z,0.40
2022-09-28T20:38:52.294Z,0.60
2022-09-28T20:41:20.476Z,0.60
2022-09-28T20:43:47.807Z,0.50
2022-09-28T20:46:14.522Z,0.50
2022-09-28T20:48:41.006Z,0.50
2022-09-28T20:51:12.900Z,0.57
2022-09-28T20:53:40.989Z,1.58
2022-09-28T20:56:23.048Z,2.60
2022-09-28T20:58:53.847Z,1.90
2022-09-28T21:01:28.132Z,1.10
2022-09-28T21:03:55.684Z,0.90
2022-09-28T21:06:24.581Z,1.00
2022-09-28T21:08:51.548Z,0.80
2022-09-28T21:11:21.380Z,0.77
2022-09-28T21:13:52.755Z,0.90
2022-09-28T21:16:19.254Z,0.98
2022-09-28T21:18:45.703Z,1.17
2022-09-28T21:21:18.431Z,1.30
2022-09-28T21:23:46.587Z,1.20
2022-09-28T21:26:15.262Z,1.02
2022-09-28T21:28:42.313Z,1.10
2022-09-28T21:31:11.098Z,1.23
2022-09-28T21:33:37.923Z,1.00
2022-09-28T21:36:22.281Z,1.08
2022-09-28T21:38:48.717Z,0.85
2022-09-28T21:41:16.999Z,0.70
2022-09-28T21:43:43.699Z,0.73
2022-09-28T21:46:10.263Z,0.75
2022-09-28T21:48:36.866Z,0.70
2022-09-28T21:51:06.164Z,0.88
2022-09-28T21:53:34.618Z,0.65
2022-09-28T21:56:01.863Z,0.90
2022-09-28T21:58:30.911Z,1.00
2022-09-28T22:01:14.947Z,0.98
2022-09-28T22:03:42.787Z,1.40
2022-09-28T22:06:09.766Z,1.70
2022-09-28T22:08:37.523Z,1.83
2022-09-28T22:11:12.852Z,1.45
2022-09-28T22:13:46.511Z,1.80
2022-09-28T22:16:14.265Z,1.58
2022-09-28T22:18:42.126Z,1.70
2022-09-28T22:21:11.967Z,2.10
2022-09-28T22:23:39.256Z,1.48
2022-09-28T22:26:14.240Z,1.27
2022-09-28T22:28:45.682Z,1.25
2022-09-28T22:31:12.215Z,1.20
2022-09-28T22:33:38.747Z,0.90
2022-09-28T22:36:05.589Z,0.80
2022-09-28T22:38:32.273Z,1.17
2022-09-28T22:40:58.946Z,0.80
2022-09-28T22:43:26.441Z,1.00
2022-09-28T22:46:07.832Z,1.00
2022-09-28T22:48:34.462Z,0.75
2022-09-28T22:51:04.394Z,0.88
2022-09-28T22:53:32.552Z,0.90
2022-09-28T22:56:00.299Z,0.80
2022-09-28T22:58:27.323Z,0.52
2022-09-28T23:00:53.809Z,0.70
2022-09-28T23:03:20.275Z,0.73
2022-09-28T23:05:54.253Z,0.65
2022-09-28T23:08:20.894Z,0.63
2022-09-28T23:10:47.395Z,0.50
2022-09-28T23:13:14.351Z,0.60
2022-09-28T23:15:40.847Z,0.60
2022-09-28T23:18:07.500Z,0.40
2022-09-28T23:20:36.173Z,0.60
2022-09-28T23:23:02.851Z,0.50
2022-09-28T23:25:29.433Z,0.52
2022-09-28T23:27:55.855Z,0.47
2022-09-28T23:30:23.614Z,0.52
2022-09-28T23:32:52.073Z,0.68
2022-09-28T23:35:19.390Z,0.73
2022-09-28T23:37:49.626Z,0.70
2022-09-28T23:42:42.454Z,0.50
2022-09-28T23:45:09.540Z,0.47
2022-09-28T23:47:36.386Z,0.65
2022-09-28T23:50:05.260Z,0.80
2022-09-28T23:52:31.788Z,0.70
2022-09-28T23:54:58.348Z,0.60
2022-09-28T23:57:24.798Z,1.30
2022-09-28T23:59:51.312Z,0.50
